createdAt,value
2018-11-01T00:02:01.473Z,100698.13
2018-11-01T00:04:29.626Z,100697.77
2018-11-01T00:06:57.791Z,100695.48
2018-11-01T00:09:25.982Z,100690.81
2018-11-01T00:11:54.207Z,100694.56
2018-11-01T00:14:22.354Z,100696.36
2018-11-01T00:16:50.704Z,100699.48
2018-11-01T00:19:18.885Z,100701.64
2018-11-01T00:21:47.051Z,100703.92
2018-11-01T00:24:15.251Z,100700.92
2018-11-01T00:26:43.463Z,100708.00
2018-11-01T00:29:11.937Z,100706.91
2018-11-01T00:31:40.120Z,100718.55
2018-11-01T00:34:08.300Z,100728.97
2018-11-01T00:36:36.591Z,100728.97
2018-11-01T00:39:07.900Z,100728.97
2018-11-01T00:41:36.074Z,100735.93
2018-11-01T00:44:04.235Z,100734.97
2018-11-01T00:46:32.432Z,100733.66
2018-11-01T00:49:00.589Z,100733.05
2018-11-01T00:51:28.776Z,100728.73
2018-11-01T00:53:56.952Z,100721.90
2018-11-01T00:56:25.167Z,100714.26
2018-11-01T00:58:53.327Z,100721.33
2018-11-01T01:01:21.525Z,100724.69
2018-11-01T01:03:49.673Z,100731.52
2018-11-01T01:06:17.830Z,100738.46
2018-11-01T01:08:46.010Z,100734.89
2018-11-01T01:11:14.186Z,100729.26
2018-11-01T01:13:43.182Z,100726.38
2018-11-01T01:16:11.359Z,100728.30
2018-11-01T01:18:39.530Z,100725.30
2018-11-01T01:21:07.755Z,100725.30
2018-11-01T01:23:36.291Z,100724.09
2018-11-01T01:26:04.435Z,100732.00
2018-11-01T01:28:32.607Z,100730.93
2018-11-01T01:31:00.769Z,100728.77
2018-11-01T01:33:28.948Z,100729.25
2018-11-01T01:35:57.124Z,100728.30
2018-11-01T01:38:25.300Z,100715.95
2018-11-01T01:40:53.490Z,100717.75
2018-11-01T01:43:21.671Z,100719.91
2018-11-01T01:45:49.840Z,100716.91
2018-11-01T01:48:18.029Z,100718.70
2018-11-01T01:50:46.287Z,100710.31
2018-11-01T01:53:14.394Z,100716.55
2018-11-01T01:55:42.583Z,100709.00
2018-11-01T01:58:10.776Z,100703.25
2018-11-01T02:00:38.971Z,100705.77
2018-11-01T02:03:07.152Z,100712.12
2018-11-01T02:05:35.343Z,100695.82
2018-11-01T02:08:03.525Z,100696.54
2018-11-01T02:10:31.718Z,100705.14
2018-11-01T02:12:59.882Z,100706.09
2018-11-01T02:15:28.059Z,100709.58
2018-11-01T02:17:56.272Z,100702.66
2018-11-01T02:20:24.421Z,100697.14
2018-11-01T02:22:52.667Z,100687.91
2018-11-01T02:25:20.859Z,100684.31
2018-11-01T02:27:54.417Z,100689.23
2018-11-01T02:30:22.604Z,100681.31
2018-11-01T02:32:50.768Z,100678.56
2018-11-01T02:35:19.659Z,100671.49
2018-11-01T02:37:47.861Z,100671.49
2018-11-01T02:40:16.621Z,100675.77
2018-11-01T02:42:45.586Z,100668.02
2018-11-01T02:45:14.502Z,100678.09
2018-11-01T02:47:42.700Z,100689.23
2018-11-01T02:50:11.989Z,100705.64
2018-11-01T02:52:40.231Z,100708.52
2018-11-01T02:55:08.951Z,100704.80
2018-11-01T02:57:37.115Z,100709.71
2018-11-01T03:00:07.340Z,100707.19
2018-11-01T03:02:35.543Z,100707.79
2018-11-01T03:05:03.779Z,100697.61
2018-11-01T03:07:31.959Z,100694.76
2018-11-01T03:10:00.141Z,100699.67
2018-11-01T03:12:28.282Z,100692.96
2018-11-01T03:14:56.447Z,100688.17
2018-11-01T03:17:24.603Z,100694.28
2018-11-01T03:19:52.770Z,100692.48
2018-11-01T03:22:20.910Z,100687.21
2018-11-01T03:24:49.064Z,100679.06
2018-11-01T03:27:17.217Z,100687.45
2018-11-01T03:29:45.378Z,100688.97
2018-11-01T03:32:13.535Z,100685.97
2018-11-01T03:34:41.688Z,100687.41
2018-11-01T03:37:09.839Z,100685.25
2018-11-01T03:39:38.012Z,100676.26
2018-11-01T03:42:06.308Z,100678.17
2018-11-01T03:44:34.454Z,100669.94
2018-11-01T03:47:02.615Z,100657.72
2018-11-01T03:49:30.806Z,100663.47
2018-11-01T03:51:59.053Z,100660.23
2018-11-01T03:54:33.976Z,100657.83
2018-11-01T03:57:02.077Z,100648.11
2018-11-01T03:59:30.252Z,100641.80
2018-11-01T04:01:58.424Z,100627.90
2018-11-01T04:04:26.588Z,100622.38
2018-11-01T04:06:54.711Z,100625.50
2018-11-01T04:09:22.867Z,100638.31
2018-11-01T04:11:51.033Z,100642.38
2018-11-01T04:14:25.830Z,100640.09
2018-11-01T04:16:54.062Z,100646.58
2018-11-01T04:19:22.235Z,100639.87
2018-11-01T04:21:54.984Z,100631.84
2018-11-01T04:24:23.150Z,100622.61
2018-11-01T04:26:52.068Z,100624.30
2018-11-01T04:29:20.195Z,100619.98
2018-11-01T04:31:48.350Z,100621.30
2018-11-01T04:34:16.554Z,100636.74
2018-11-01T04:36:44.737Z,100651.81
2018-11-01T04:39:12.908Z,100658.04
2018-11-01T04:41:41.059Z,100659.98
2018-11-01T04:44:09.244Z,100650.77
2018-11-01T04:46:37.455Z,100652.44
2018-11-01T04:49:05.968Z,100651.13
2018-11-01T04:51:34.143Z,100649.45
2018-11-01T04:54:02.290Z,100650.40
2018-11-01T04:56:30.447Z,100642.25
2018-11-01T04:58:58.623Z,100630.16
2018-11-01T05:01:26.807Z,100616.52
2018-11-01T05:03:55.580Z,100617.58
2018-11-01T05:06:23.739Z,100617.22
2018-11-01T05:08:52.276Z,100616.50
2018-11-01T05:11:20.399Z,100617.81
2018-11-01T05:13:49.178Z,100617.45
2018-11-01T05:16:17.381Z,100616.76
2018-11-01T05:18:45.942Z,100622.72
2018-11-01T05:21:14.522Z,100613.62
2018-11-01T05:23:42.665Z,100609.66
2018-11-01T05:26:10.838Z,100608.02
2018-11-01T05:28:39.042Z,100608.35
2018-11-01T05:31:07.243Z,100611.13
2018-11-01T05:33:35.378Z,100614.72
2018-11-01T05:36:03.571Z,100625.11
2018-11-01T05:38:31.718Z,100629.41
2018-11-01T05:40:59.899Z,100622.84
2018-11-01T05:43:29.147Z,100627.01
2018-11-01T05:45:57.965Z,100623.29
2018-11-01T05:48:26.116Z,100623.87
2018-11-01T05:50:54.287Z,100623.98
2018-11-01T05:53:22.828Z,100621.95
2018-11-01T05:55:50.996Z,100621.37
2018-11-01T05:58:19.167Z,100615.38
2018-11-01T06:00:47.302Z,100607.96
2018-11-01T06:03:15.490Z,100609.39
2018-11-01T06:05:43.725Z,100611.06
2018-11-01T06:08:16.368Z,100610.70
2018-11-01T06:10:44.560Z,100607.34
2018-11-01T06:13:12.774Z,100602.67
2018-11-01T06:15:41.012Z,100608.41
2018-11-01T06:18:09.276Z,100603.26
2018-11-01T06:20:37.432Z,100617.48
2018-11-01T06:23:06.279Z,100630.52
2018-11-01T06:25:34.426Z,100642.95
2018-11-01T06:28:02.667Z,100645.80
2018-11-01T06:30:30.870Z,100648.55
2018-11-01T06:32:59.019Z,100641.60
2018-11-01T06:35:30.641Z,100649.49
2018-11-01T06:37:58.955Z,100659.66
2018-11-01T06:40:27.191Z,100669.22
2018-11-01T06:42:55.362Z,100669.95
2018-11-01T06:45:23.558Z,100672.95
2018-11-01T06:47:51.714Z,100671.05
2018-11-01T06:50:19.907Z,100668.31
2018-11-01T06:52:48.073Z,100668.89
2018-11-01T06:55:16.227Z,100673.60
2018-11-01T06:57:44.502Z,100680.58
2018-11-01T07:00:14.795Z,100677.83
2018-11-01T07:02:43.342Z,100679.66
2018-11-01T07:05:11.514Z,100679.79
2018-11-01T07:07:40.016Z,100674.27
2018-11-01T07:10:10.235Z,100678.61
2018-11-01T07:12:38.418Z,100675.16
2018-11-01T07:15:07.958Z,100669.52
2018-11-01T07:17:36.364Z,100662.00
2018-11-01T07:20:04.646Z,100660.56
2018-11-01T07:22:32.900Z,100654.70
2018-11-01T07:25:01.051Z,100645.73
2018-11-01T07:27:29.303Z,100644.66
2018-11-01T07:29:57.502Z,100644.06
2018-11-01T07:32:25.735Z,100642.16
2018-11-01T07:34:53.840Z,100636.05
2018-11-01T07:37:21.992Z,100641.20
2018-11-01T07:39:50.203Z,100644.67
2018-11-01T07:42:18.334Z,100652.58
2018-11-01T07:44:47.035Z,100653.89
2018-11-01T07:47:15.222Z,100648.62
2018-11-01T07:49:43.540Z,100654.11
2018-11-01T07:52:11.688Z,100655.66
2018-11-01T07:54:39.933Z,100653.28
2018-11-01T07:57:08.099Z,100641.30
2018-11-01T07:59:36.273Z,100631.38
2018-11-01T08:02:04.848Z,100630.30
2018-11-01T08:04:33.080Z,100627.03
2018-11-01T08:07:01.246Z,100612.30
2018-11-01T08:09:29.519Z,100610.88
2018-11-01T08:11:57.723Z,100610.52
2018-11-01T08:14:25.867Z,100612.91
2018-11-01T08:16:54.028Z,100616.59
2018-11-01T08:19:22.270Z,100610.73
2018-11-01T08:21:50.359Z,100605.81
2018-11-01T08:24:18.516Z,100601.98
2018-11-01T08:26:46.760Z,100606.21
2018-11-01T08:29:14.908Z,100607.77
2018-11-01T08:31:43.164Z,100607.86
2018-11-01T08:34:11.353Z,100609.53
2018-11-01T08:36:39.512Z,100605.45
2018-11-01T08:39:08.380Z,100598.75
2018-11-01T08:41:36.531Z,100600.55
2018-11-01T08:44:05.321Z,100595.98
2018-11-01T08:46:33.486Z,100587.67
2018-11-01T08:49:01.691Z,100581.33
2018-11-01T08:51:29.851Z,100574.84
2018-11-01T08:53:58.322Z,100572.32
2018-11-01T08:56:26.535Z,100571.69
2018-11-01T08:58:54.750Z,100571.56
2018-11-01T09:01:22.950Z,100579.70
2018-11-01T09:03:51.111Z,100581.98
2018-11-01T09:06:19.259Z,100573.81
2018-11-01T09:08:47.446Z,100561.34
2018-11-01T09:11:15.627Z,100562.37
2018-11-01T09:13:43.803Z,100574.48
2018-11-01T09:16:11.971Z,100592.35
2018-11-01T09:18:40.166Z,100601.94
2018-11-01T09:21:08.335Z,100609.25
2018-11-01T09:23:36.491Z,100606.48
2018-11-01T09:26:04.744Z,100606.61
2018-11-01T09:28:32.888Z,100596.42
2018-11-01T09:31:01.067Z,100602.17
2018-11-01T09:33:29.298Z,100612.48
2018-11-01T09:35:57.444Z,100614.28
2018-11-01T09:38:25.588Z,100609.00
2018-11-01T09:40:53.750Z,100593.89
2018-11-01T09:43:22.021Z,100595.41
2018-11-01T09:45:50.423Z,100602.84
2018-11-01T09:48:18.885Z,100602.23
2018-11-01T09:50:47.038Z,100599.95
2018-11-01T09:53:15.196Z,100602.47
2018-11-01T09:55:43.406Z,100600.55
2018-11-01T09:58:11.520Z,100605.09
2018-11-01T10:00:39.702Z,100611.41
2018-11-01T10:03:07.905Z,100610.32
2018-11-01T10:05:36.063Z,100614.03
2018-11-01T10:08:04.227Z,100610.30
2018-11-01T10:10:32.487Z,100607.89
2018-11-01T10:13:00.705Z,100608.12
2018-11-01T10:15:28.999Z,100610.96
2018-11-01T10:17:57.460Z,100602.92
2018-11-01T10:20:25.271Z,100602.66
2018-11-01T10:22:53.553Z,100616.22
2018-11-01T10:25:21.788Z,100619.58
2018-11-01T10:27:49.919Z,100618.97
2018-11-01T10:30:19.764Z,100618.00
2018-11-01T10:32:47.936Z,100626.98
2018-11-01T10:35:17.131Z,100622.39
2018-11-01T10:37:45.316Z,100619.49
2018-11-01T10:40:14.898Z,100611.31
2018-11-01T10:42:43.055Z,100607.94
2018-11-01T10:45:11.248Z,100609.36
2018-11-01T10:47:39.686Z,100594.55
2018-11-01T10:50:14.670Z,100592.84
2018-11-01T10:52:42.895Z,100591.88
2018-11-01T10:55:12.048Z,100582.85
2018-11-01T10:57:40.544Z,100579.37
2018-11-01T11:00:15.446Z,100571.67
2018-11-01T11:02:46.087Z,100569.87
2018-11-01T11:05:14.934Z,100562.30
2018-11-01T11:07:43.102Z,100553.53
2018-11-01T11:10:11.250Z,100545.13
2018-11-01T11:12:39.423Z,100534.88
2018-11-01T11:15:08.367Z,100526.33
2018-11-01T11:17:36.554Z,100526.55
2018-11-01T11:20:05.371Z,100526.78
2018-11-01T11:22:33.618Z,100526.65
2018-11-01T11:25:01.779Z,100525.55
2018-11-01T11:27:29.945Z,100528.19
2018-11-01T11:29:58.198Z,100540.92
2018-11-01T11:32:26.270Z,100549.55
2018-11-01T11:34:54.431Z,100556.16
2018-11-01T11:37:22.625Z,100571.66
2018-11-01T11:39:50.925Z,100575.27
2018-11-01T11:42:19.016Z,100570.47
2018-11-01T11:44:47.174Z,100567.83
2018-11-01T11:47:15.371Z,100562.67
2018-11-01T11:49:43.543Z,100566.16
2018-11-01T11:52:11.738Z,100575.05
2018-11-01T11:54:39.954Z,100570.86
2018-11-01T11:57:08.165Z,100564.12
2018-11-01T11:59:36.259Z,100567.73
2018-11-01T12:02:04.521Z,100574.69
2018-11-01T12:04:32.615Z,100569.89
2018-11-01T12:07:00.813Z,100573.98
2018-11-01T12:09:28.971Z,100563.77
2018-11-01T12:11:57.212Z,100567.61
2018-11-01T12:14:25.481Z,100568.09
2018-11-01T12:16:53.651Z,100557.65
2018-11-01T12:19:21.820Z,100547.20
2018-11-01T12:21:50.018Z,100549.14
2018-11-01T12:24:18.192Z,100538.84
2018-11-01T12:26:46.367Z,100533.55
2018-11-01T12:29:14.567Z,100531.43
2018-11-01T12:31:42.739Z,100531.27
2018-11-01T12:34:10.930Z,100522.98
2018-11-01T12:36:39.106Z,100524.17
2018-11-01T12:39:08.048Z,100526.33
2018-11-01T12:41:36.418Z,100527.52
2018-11-01T12:44:04.584Z,100524.75
2018-11-01T12:46:32.812Z,100524.49
2018-11-01T12:49:01.020Z,100522.20
2018-11-01T12:51:29.192Z,100528.55
2018-11-01T12:53:57.879Z,100524.93
2018-11-01T12:56:26.149Z,100532.28
2018-11-01T12:58:54.196Z,100538.23
2018-11-01T13:01:22.424Z,100538.59
2018-11-01T13:03:50.606Z,100538.33
2018-11-01T13:06:18.784Z,100541.67
2018-11-01T13:08:46.949Z,100541.41
2018-11-01T13:11:15.162Z,100540.79
2018-11-01T13:13:43.339Z,100539.83
2018-11-01T13:16:11.643Z,100539.47
2018-11-01T13:18:39.826Z,100545.73
2018-11-01T13:21:07.996Z,100558.59
2018-11-01T13:23:36.882Z,100558.72
2018-11-01T13:26:05.106Z,100556.20
2018-11-01T13:28:33.250Z,100560.30
2018-11-01T13:31:01.504Z,100561.05
2018-11-01T13:33:29.658Z,100565.02
2018-11-01T13:35:57.875Z,100567.44
2018-11-01T13:38:26.034Z,100563.98
2018-11-01T13:40:54.693Z,100561.58
2018-11-01T13:43:22.456Z,100570.47
2018-11-01T13:45:50.697Z,100580.20
2018-11-01T13:48:19.081Z,100584.30
2018-11-01T13:50:47.155Z,100579.63
2018-11-01T13:53:15.727Z,100583.84
2018-11-01T13:55:43.996Z,100584.27
2018-11-01T13:58:12.202Z,100592.67
2018-11-01T14:00:41.487Z,100600.25
2018-11-01T14:03:09.702Z,100596.90
2018-11-01T14:05:37.887Z,100599.31
2018-11-01T14:08:06.165Z,100592.23
2018-11-01T14:10:34.403Z,100595.70
2018-11-01T14:13:02.621Z,100594.87
2018-11-01T14:15:30.857Z,100594.16
2018-11-01T14:17:58.957Z,100593.45
2018-11-01T14:20:27.182Z,100586.63
2018-11-01T14:22:55.358Z,100594.67
2018-11-01T14:25:23.574Z,100598.64
2018-11-01T14:27:51.705Z,100599.12
2018-11-01T14:30:19.858Z,100602.41
2018-11-01T14:32:48.016Z,100606.49
2018-11-01T14:35:16.202Z,100604.81
2018-11-01T14:37:44.383Z,100602.78
2018-11-01T14:40:13.609Z,100606.87
2018-11-01T14:42:41.915Z,100607.13
2018-11-01T14:45:10.331Z,100603.30
2018-11-01T14:47:38.622Z,100605.22
2018-11-01T14:50:07.535Z,100601.42
2018-11-01T14:52:36.003Z,100608.50
2018-11-01T14:55:05.083Z,100606.83
2018-11-01T14:57:33.610Z,100608.98
2018-11-01T15:00:00.156Z,100602.38
2018-11-01T15:02:28.296Z,100608.63
2018-11-01T15:04:56.504Z,100610.08
2018-11-01T15:07:24.766Z,100607.92
2018-11-01T15:09:52.915Z,100601.45
2018-11-01T15:12:21.807Z,100607.21
2018-11-01T15:14:49.983Z,100604.70
2018-11-01T15:17:18.125Z,100601.34
2018-11-01T15:19:46.271Z,100597.86
2018-11-01T15:22:14.423Z,100591.39
2018-11-01T15:24:42.604Z,100594.64
2018-11-01T15:27:10.806Z,100590.32
2018-11-01T15:29:39.005Z,100580.76
2018-11-01T15:32:07.158Z,100581.37
2018-11-01T15:34:35.347Z,100579.08
2018-11-01T15:37:03.490Z,100579.08
2018-11-01T15:39:31.630Z,100565.88
2018-11-01T15:41:59.775Z,100562.89
2018-11-01T15:44:27.940Z,100565.05
2018-11-01T15:46:56.213Z,100562.89
2018-11-01T15:49:24.367Z,100561.22
2018-11-01T15:51:52.587Z,100562.66
2018-11-01T15:54:20.730Z,100556.90
2018-11-01T15:56:49.199Z,100554.26
2018-11-01T15:59:17.381Z,100554.73
2018-11-01T16:01:45.538Z,100551.63
2018-11-01T16:04:13.825Z,100549.46
2018-11-01T16:06:42.076Z,100545.63
2018-11-01T16:09:11.904Z,100541.31
2018-11-01T16:11:40.055Z,100541.31
2018-11-01T16:14:08.784Z,100538.32
2018-11-01T16:16:37.154Z,100533.04
2018-11-01T16:19:05.575Z,100524.41
2018-11-01T16:21:33.786Z,100525.13
2018-11-01T16:24:01.935Z,100525.13
2018-11-01T16:26:30.126Z,100528.47
2018-11-01T16:28:58.748Z,100529.44
2018-11-01T16:31:27.575Z,100525.83
2018-11-01T16:33:56.264Z,100518.27
2018-11-01T16:36:24.773Z,100509.38
2018-11-01T16:38:53.184Z,100508.90
2018-11-01T16:41:21.693Z,100523.29
2018-11-01T16:43:50.436Z,100535.17
2018-11-01T16:46:19.311Z,100549.08
2018-11-01T16:48:48.779Z,100562.28
2018-11-01T16:51:19.021Z,100562.28
2018-11-01T16:53:47.163Z,100548.38
2018-11-01T16:56:15.386Z,100540.33
2018-11-01T16:58:43.779Z,100548.92
2018-11-01T17:01:12.170Z,100563.92
2018-11-01T17:03:40.888Z,100573.52
2018-11-01T17:06:09.340Z,100578.80
2018-11-01T17:08:38.001Z,100573.80
2018-11-01T17:11:06.731Z,100569.36
2018-11-01T17:13:35.270Z,100580.76
2018-11-01T17:16:03.417Z,100592.96
2018-11-01T17:18:31.570Z,100602.20
2018-11-01T17:20:59.763Z,100593.13
2018-11-01T17:23:27.922Z,100600.20
2018-11-01T17:25:56.137Z,100598.88
2018-11-01T17:28:31.067Z,100604.04
2018-11-01T17:30:59.266Z,100600.20
2018-11-01T17:33:27.467Z,100601.52
2018-11-01T17:35:55.695Z,100607.16
2018-11-01T17:38:23.834Z,100606.80
2018-11-01T17:40:52.016Z,100613.89
2018-11-01T17:43:20.194Z,100627.56
2018-11-01T17:45:48.398Z,100626.38
2018-11-01T17:48:16.600Z,100636.09
2018-11-01T17:50:44.849Z,100623.98
2018-11-01T17:53:13.053Z,100627.94
2018-11-01T17:55:41.227Z,100624.82
2018-11-01T17:58:09.403Z,100622.18
2018-11-01T18:00:37.569Z,100629.62
2018-11-01T18:03:05.879Z,100622.66
2018-11-01T18:05:34.040Z,100632.38
2018-11-01T18:08:03.066Z,100628.55
2018-11-01T18:10:31.223Z,100629.87
2018-11-01T18:12:59.448Z,100629.87
2018-11-01T18:15:27.618Z,100627.00
2018-11-01T18:17:55.779Z,100631.80
2018-11-01T18:20:23.959Z,100620.16
2018-11-01T18:22:52.119Z,100614.69
2018-11-01T18:25:20.348Z,100616.61
2018-11-01T18:27:48.495Z,100614.70
2018-11-01T18:30:17.568Z,100617.11
2018-11-01T18:32:46.218Z,100612.20
2018-11-01T18:35:14.215Z,100615.95
2018-11-01T18:37:42.795Z,100624.13
2018-11-01T18:40:13.863Z,100625.33
2018-11-01T18:42:42.567Z,100631.92
2018-11-01T18:45:12.555Z,100627.25
2018-11-01T18:47:40.782Z,100634.33
2018-11-01T18:50:10.127Z,100639.60
2018-11-01T18:52:38.357Z,100646.92
2018-11-01T18:55:07.443Z,100649.08
2018-11-01T18:57:35.611Z,100646.44
2018-11-01T19:00:03.958Z,100653.39
2018-11-01T19:02:32.178Z,100653.75
2018-11-01T19:05:00.307Z,100645.47
2018-11-01T19:07:28.621Z,100648.47
2018-11-01T19:09:56.785Z,100657.94
2018-11-01T19:12:24.934Z,100658.42
2018-11-01T19:14:53.114Z,100656.86
2018-11-01T19:17:21.314Z,100654.22
2018-11-01T19:19:49.455Z,100665.45
2018-11-01T19:22:17.722Z,100664.85
2018-11-01T19:24:46.021Z,100663.41
2018-11-01T19:27:14.457Z,100657.41
2018-11-01T19:29:42.323Z,100656.56
2018-11-01T19:32:10.486Z,100661.01
2018-11-01T19:34:38.897Z,100663.65
2018-11-01T19:37:07.027Z,100665.80
2018-11-01T19:39:35.223Z,100661.01
2018-11-01T19:42:03.368Z,100666.41
2018-11-01T19:44:31.520Z,100674.33
2018-11-01T19:46:59.675Z,100676.61
2018-11-01T19:49:27.857Z,100682.37
2018-11-01T19:51:56.000Z,100680.69
2018-11-01T19:54:24.134Z,100685.25
2018-11-01T19:56:52.270Z,100690.68
2018-11-01T19:59:20.424Z,100687.20
2018-11-01T20:01:48.584Z,100688.52
2018-11-01T20:04:16.916Z,100693.80
2018-11-01T20:06:44.952Z,100688.05
2018-11-01T20:09:13.176Z,100689.20
2018-11-01T20:11:41.334Z,100687.89
2018-11-01T20:14:09.515Z,100694.00
2018-11-01T20:16:37.646Z,100685.25
2018-11-01T20:19:05.903Z,100683.69
2018-11-01T20:21:34.089Z,100677.09
2018-11-01T20:24:02.283Z,100686.69
2018-11-01T20:26:30.466Z,100695.31
2018-11-01T20:28:58.644Z,100689.20
2018-11-01T20:31:26.921Z,100696.64
2018-11-01T20:33:54.972Z,100697.00
2018-11-01T20:36:23.124Z,100705.27
2018-11-01T20:38:51.394Z,100701.80
2018-11-01T20:41:19.551Z,100697.35
2018-11-01T20:43:48.042Z,100695.20
2018-11-01T20:46:16.210Z,100690.75
2018-11-01T20:48:44.476Z,100691.11
2018-11-01T20:51:12.624Z,100695.08
2018-11-01T20:53:40.783Z,100702.51
2018-11-01T20:56:08.942Z,100704.55
2018-11-01T20:58:37.102Z,100693.51
2018-11-01T21:01:05.516Z,100700.82
2018-11-01T21:03:33.687Z,100705.11
2018-11-01T21:06:01.834Z,100696.71
2018-11-01T21:08:29.988Z,100698.87
2018-11-01T21:10:58.171Z,100694.78
2018-11-01T21:13:26.333Z,100698.27
2018-11-01T21:15:54.528Z,100700.91
2018-11-01T21:18:22.687Z,100706.54
2018-11-01T21:20:50.862Z,100702.94
2018-11-01T21:23:19.031Z,100711.58
2018-11-01T21:25:47.191Z,100715.17
2018-11-01T21:28:15.339Z,100717.81
2018-11-01T21:30:43.489Z,100725.61
2018-11-01T21:33:11.775Z,100725.13
2018-11-01T21:35:39.998Z,100727.29
2018-11-01T21:38:08.092Z,100728.97
2018-11-01T21:40:36.271Z,100729.09
2018-11-01T21:43:04.648Z,100731.73
2018-11-01T21:45:32.822Z,100732.93
2018-11-01T21:48:00.987Z,100735.09
2018-11-01T21:50:29.171Z,100735.80
2018-11-01T21:52:57.345Z,100740.48
2018-11-01T21:55:25.529Z,100741.52
2018-11-01T21:57:53.648Z,100749.32
2018-11-01T22:00:21.802Z,100745.72
2018-11-01T22:02:49.957Z,100755.20
2018-11-01T22:05:18.118Z,100754.11
2018-11-01T22:07:46.279Z,100754.34
2018-11-01T22:10:14.448Z,100754.34
2018-11-01T22:12:42.601Z,100759.02
2018-11-01T22:15:11.640Z,100767.78
2018-11-01T22:17:40.404Z,100762.23
2018-11-01T22:20:09.487Z,100763.42
2018-11-01T22:22:37.704Z,100768.10
2018-11-01T22:25:06.635Z,100770.27
2018-11-01T22:27:34.919Z,100775.06
2018-11-01T22:30:03.185Z,100780.34
2018-11-01T22:32:31.375Z,100778.91
2018-11-01T22:34:59.530Z,100773.98
2018-11-01T22:37:27.671Z,100781.30
2018-11-01T22:39:55.888Z,100780.33
2018-11-01T22:42:24.076Z,100775.77
2018-11-01T22:44:52.211Z,100785.49
2018-11-01T22:47:20.366Z,100787.66
2018-11-01T22:49:48.523Z,100791.94
2018-11-01T22:52:16.688Z,100791.94
2018-11-01T22:54:44.841Z,100797.22
2018-11-01T22:57:13.035Z,100799.39
2018-11-01T22:59:41.249Z,100806.70
2018-11-01T23:02:09.338Z,100794.34
2018-11-01T23:04:37.511Z,100791.57
2018-11-01T23:07:05.747Z,100798.17
2018-11-01T23:09:33.907Z,100799.14
2018-11-01T23:12:02.083Z,100799.14
2018-11-01T23:14:30.225Z,100801.91
2018-11-01T23:16:58.355Z,100797.38
2018-11-01T23:19:26.520Z,100802.66
2018-11-01T23:21:54.666Z,100804.83
2018-11-01T23:24:22.835Z,100806.95
2018-11-01T23:26:51.007Z,100816.55
2018-11-01T23:29:19.186Z,100816.43
2018-11-01T23:31:47.327Z,100820.88
2018-11-01T23:34:15.503Z,100821.48
2018-11-01T23:36:48.952Z,100825.44
2018-11-01T23:39:22.574Z,100827.04
2018-11-01T23:41:56.027Z,100823.68
2018-11-01T23:44:29.674Z,100839.17
2018-11-01T23:47:03.083Z,100833.05
2018-11-01T23:49:35.046Z,100837.48
2018-11-01T23:52:08.355Z,100836.29
2018-11-01T23:54:36.533Z,100838.33
2018-11-01T23:57:04.728Z,100832.69
2018-11-01T23:59:32.880Z,100844.21
